createdAt,value
2022-07-25T00:01:56.745Z,6.90
2022-07-25T00:04:24.485Z,6.10
2022-07-25T00:06:51.945Z,6.43
2022-07-25T00:09:19.421Z,6.50
2022-07-25T00:11:46.934Z,6.83
2022-07-25T00:14:14.628Z,7.03
2022-07-25T00:16:43.439Z,7.13
2022-07-25T00:19:11.539Z,6.90
2022-07-25T00:21:39.013Z,6.80
2022-07-25T00:24:07.023Z,7.20
2022-07-25T00:26:39.775Z,6.47
2022-07-25T00:29:07.797Z,6.77
2022-07-25T00:31:35.387Z,6.53
2022-07-25T00:34:04.690Z,6.40
2022-07-25T00:36:32.424Z,6.70
2022-07-25T00:38:59.916Z,6.50
2022-07-25T00:41:27.428Z,6.60
2022-07-25T00:43:54.948Z,6.70
2022-07-25T00:46:22.434Z,6.90
2022-07-25T00:48:51.531Z,6.80
2022-07-25T00:51:20.548Z,6.20
2022-07-25T00:53:48.363Z,6.77
2022-07-25T00:56:16.484Z,6.47
2022-07-25T00:58:45.341Z,6.80
2022-07-25T01:01:12.855Z,6.67
2022-07-25T01:03:40.493Z,7.13
2022-07-25T01:06:08.816Z,6.50
2022-07-25T01:08:37.793Z,6.33
2022-07-25T01:11:05.437Z,6.37
2022-07-25T01:13:33.469Z,6.80
2022-07-25T01:16:01.003Z,6.17
2022-07-25T01:18:28.579Z,6.80
2022-07-25T01:20:57.537Z,6.27
2022-07-25T01:23:25.018Z,6.73
2022-07-25T01:25:52.505Z,6.77
2022-07-25T01:28:20.128Z,6.57
2022-07-25T01:30:47.641Z,6.60
2022-07-25T01:33:16.152Z,6.87
2022-07-25T01:35:43.758Z,6.80
2022-07-25T01:38:13.034Z,7.00
2022-07-25T01:40:40.587Z,6.53
2022-07-25T01:43:08.409Z,6.60
2022-07-25T01:45:35.951Z,6.00
2022-07-25T01:48:03.655Z,6.60
2022-07-25T01:50:31.150Z,6.87
2022-07-25T01:52:58.763Z,7.27
2022-07-25T01:55:27.694Z,7.30
2022-07-25T01:57:57.669Z,6.50
2022-07-25T02:00:25.268Z,7.13
2022-07-25T02:03:13.376Z,6.73
2022-07-25T02:05:40.874Z,6.70
2022-07-25T02:08:08.353Z,6.40
2022-07-25T02:10:40.295Z,6.20
2022-07-25T02:13:07.765Z,6.87
2022-07-25T02:15:36.463Z,6.43
2022-07-25T02:18:03.940Z,6.60
2022-07-25T02:20:31.561Z,7.13
2022-07-25T02:22:59.028Z,6.87
2022-07-25T02:25:26.493Z,6.70
2022-07-25T02:27:55.336Z,6.90
2022-07-25T02:30:22.797Z,6.73
2022-07-25T02:32:50.275Z,6.83
2022-07-25T02:35:17.803Z,6.80
2022-07-25T02:37:45.366Z,6.13
2022-07-25T02:40:13.313Z,7.20
2022-07-25T02:42:40.818Z,6.80
2022-07-25T02:45:11.253Z,6.50
2022-07-25T02:47:38.860Z,6.80
2022-07-25T02:50:06.844Z,6.90
2022-07-25T02:52:35.841Z,6.87
2022-07-25T02:55:09.250Z,6.90
2022-07-25T02:57:37.272Z,7.23
2022-07-25T03:00:05.202Z,6.40
2022-07-25T03:02:34.033Z,6.83
2022-07-25T03:05:01.529Z,6.80
2022-07-25T03:07:29.013Z,6.50
2022-07-25T03:09:56.483Z,6.80
2022-07-25T03:12:23.976Z,6.90
2022-07-25T03:14:51.527Z,6.73
2022-07-25T03:17:19.055Z,7.10
2022-07-25T03:19:47.863Z,7.27
2022-07-25T03:22:15.326Z,7.13
2022-07-25T03:24:42.957Z,6.73
2022-07-25T03:27:10.847Z,6.60
2022-07-25T03:29:38.406Z,7.00
2022-07-25T03:32:06.438Z,6.97
2022-07-25T03:34:33.943Z,6.90
2022-07-25T03:37:02.745Z,6.80
2022-07-25T03:39:30.308Z,7.37
2022-07-25T03:41:57.907Z,7.20
2022-07-25T03:44:25.903Z,7.10
2022-07-25T03:46:53.556Z,6.20
2022-07-25T03:49:20.969Z,7.37
2022-07-25T03:51:48.463Z,7.30
2022-07-25T03:54:17.336Z,6.60
2022-07-25T03:56:47.388Z,6.60
2022-07-25T03:59:15.843Z,6.50
2022-07-25T04:01:43.755Z,7.07
2022-07-25T04:04:11.519Z,6.80
2022-07-25T04:06:39.572Z,6.73
2022-07-25T04:09:07.485Z,6.70
2022-07-25T04:11:38.149Z,6.87
2022-07-25T04:14:06.432Z,6.80
2022-07-25T04:16:34.809Z,6.30
2022-07-25T04:19:02.832Z,6.93
2022-07-25T04:21:32.443Z,6.57
2022-07-25T04:23:59.982Z,6.40
2022-07-25T04:26:27.452Z,6.77
2022-07-25T04:28:57.668Z,6.60
2022-07-25T04:31:25.608Z,6.93
2022-07-25T04:33:53.138Z,6.57
2022-07-25T04:36:20.775Z,6.33
2022-07-25T04:38:48.254Z,5.97
2022-07-25T04:41:15.720Z,6.70
2022-07-25T04:43:48.385Z,6.47
2022-07-25T04:46:21.694Z,6.70
2022-07-25T04:48:49.713Z,7.17
2022-07-25T04:51:17.601Z,6.20
2022-07-25T04:53:45.127Z,6.20
2022-07-25T04:56:12.613Z,6.60
2022-07-25T04:58:40.196Z,6.83
2022-07-25T05:01:08.309Z,6.40
2022-07-25T05:03:37.189Z,6.70
2022-07-25T05:06:04.789Z,6.60
2022-07-25T05:08:32.264Z,5.87
2022-07-25T05:10:59.758Z,6.40
2022-07-25T05:13:27.244Z,6.00
2022-07-25T05:15:54.742Z,6.80
2022-07-25T05:18:22.283Z,6.00
2022-07-25T05:20:51.103Z,6.50
2022-07-25T05:23:18.599Z,6.60
2022-07-25T05:25:46.107Z,6.67
2022-07-25T05:28:14.829Z,6.60
2022-07-25T05:30:42.548Z,6.17
2022-07-25T05:33:10.031Z,6.33
2022-07-25T05:35:37.619Z,5.70
2022-07-25T05:38:06.535Z,5.80
2022-07-25T05:40:34.063Z,7.13
2022-07-25T05:43:03.423Z,7.13
2022-07-25T05:45:31.445Z,6.70
2022-07-25T05:47:58.933Z,6.37
2022-07-25T05:50:26.527Z,6.43
2022-07-25T05:52:54.036Z,6.53
2022-07-25T05:55:22.848Z,6.23
2022-07-25T05:57:50.351Z,6.37
2022-07-25T06:00:18.048Z,6.73
2022-07-25T06:02:45.641Z,6.30
2022-07-25T06:05:13.232Z,6.60
2022-07-25T06:07:41.280Z,6.03
2022-07-25T06:10:09.588Z,6.40
2022-07-25T06:12:38.419Z,6.40
2022-07-25T06:15:06.373Z,6.50
2022-07-25T06:17:33.954Z,6.30
2022-07-25T06:20:01.451Z,6.67
2022-07-25T06:22:28.907Z,6.60
2022-07-25T06:24:56.352Z,6.50
2022-07-25T06:27:29.013Z,6.10
2022-07-25T06:29:58.311Z,7.20
2022-07-25T06:32:25.757Z,6.40
2022-07-25T06:34:53.218Z,6.80
2022-07-25T06:37:20.648Z,6.27
2022-07-25T06:39:48.072Z,6.50
2022-07-25T06:42:15.528Z,6.60
2022-07-25T06:44:44.037Z,6.73
2022-07-25T06:47:13.492Z,6.00
2022-07-25T06:49:41.368Z,6.43
2022-07-25T06:52:09.170Z,5.90
2022-07-25T06:54:36.775Z,5.90
2022-07-25T06:57:05.164Z,5.97
2022-07-25T06:59:33.254Z,6.30
2022-07-25T07:02:01.026Z,6.23
2022-07-25T07:04:29.930Z,6.33
2022-07-25T07:06:57.432Z,6.53
2022-07-25T07:09:24.879Z,6.47
2022-07-25T07:11:52.424Z,5.90
2022-07-25T07:14:19.902Z,6.10
2022-07-25T07:16:47.508Z,6.13
2022-07-25T07:19:15.640Z,6.30
2022-07-25T07:21:45.542Z,6.17
2022-07-25T07:24:24.094Z,6.40
2022-07-25T07:26:52.384Z,6.20
2022-07-25T07:29:19.888Z,6.33
2022-07-25T07:31:47.443Z,6.37
2022-07-25T07:34:16.676Z,6.13
2022-07-25T07:36:45.611Z,7.00
2022-07-25T07:39:13.068Z,6.20
2022-07-25T07:41:40.560Z,6.13
2022-07-25T07:44:08.019Z,6.43
2022-07-25T07:46:35.543Z,5.93
2022-07-25T07:49:03.110Z,6.60
2022-07-25T07:51:30.732Z,6.10
2022-07-25T07:54:16.721Z,6.50
2022-07-25T07:56:45.669Z,6.43
2022-07-25T07:59:13.365Z,6.03
2022-07-25T08:01:40.998Z,6.43
2022-07-25T08:04:08.918Z,6.07
2022-07-25T08:06:36.680Z,6.23
2022-07-25T08:09:05.736Z,6.60
2022-07-25T08:11:33.372Z,6.50
2022-07-25T08:14:01.680Z,6.83
2022-07-25T08:16:29.187Z,6.40
2022-07-25T08:18:56.664Z,6.10
2022-07-25T08:21:24.092Z,6.23
2022-07-25T08:23:51.638Z,5.97
2022-07-25T08:26:20.664Z,5.73
2022-07-25T08:28:52.576Z,6.60
2022-07-25T08:31:28.152Z,5.83
2022-07-25T08:33:55.751Z,6.47
2022-07-25T08:36:23.225Z,6.67
2022-07-25T08:38:50.666Z,6.10
2022-07-25T08:41:18.140Z,6.33
2022-07-25T08:43:53.689Z,6.30
2022-07-25T08:46:21.244Z,6.13
2022-07-25T08:48:49.077Z,6.83
2022-07-25T08:51:16.744Z,6.57
2022-07-25T08:53:48.477Z,6.13
2022-07-25T08:56:20.920Z,6.50
2022-07-25T08:58:49.527Z,6.40
2022-07-25T09:01:18.491Z,6.50
2022-07-25T09:03:46.391Z,5.83
2022-07-25T09:06:17.812Z,6.30
2022-07-25T09:08:51.882Z,6.20
2022-07-25T09:11:27.446Z,5.77
2022-07-25T09:13:58.742Z,5.97
2022-07-25T09:16:31.705Z,6.40
2022-07-25T09:19:10.607Z,6.40
2022-07-25T09:21:39.807Z,5.83
2022-07-25T09:24:15.767Z,6.17
2022-07-25T09:26:47.193Z,5.90
2022-07-25T09:29:18.533Z,5.80
2022-07-25T09:31:47.494Z,6.10
2022-07-25T09:34:17.989Z,6.00
2022-07-25T09:36:54.841Z,5.70
2022-07-25T09:39:22.447Z,6.20
2022-07-25T09:41:50.991Z,5.77
2022-07-25T09:44:18.601Z,5.73
2022-07-25T09:46:47.426Z,6.43
2022-07-25T09:49:15.191Z,6.20
2022-07-25T09:51:43.153Z,5.77
2022-07-25T09:54:10.824Z,6.30
2022-07-25T09:56:38.409Z,6.37
2022-07-25T09:59:06.356Z,7.07
2022-07-25T10:01:35.896Z,5.87
2022-07-25T10:04:10.741Z,6.07
2022-07-25T10:06:40.870Z,6.10
2022-07-25T10:09:11.485Z,6.47
2022-07-25T10:11:38.970Z,6.10
2022-07-25T10:14:10.811Z,6.10
2022-07-25T10:16:46.126Z,6.47
2022-07-25T10:19:14.977Z,6.57
2022-07-25T10:21:42.503Z,6.30
2022-07-25T10:24:11.193Z,7.00
2022-07-25T10:26:39.797Z,6.50
2022-07-25T10:29:09.291Z,6.77
2022-07-25T10:31:38.449Z,6.00
2022-07-25T10:34:07.249Z,6.20
2022-07-25T10:36:44.387Z,6.60
2022-07-25T10:39:13.592Z,7.10
2022-07-25T10:41:42.008Z,6.67
2022-07-25T10:44:13.141Z,7.57
2022-07-25T10:46:41.224Z,6.70
2022-07-25T10:49:09.658Z,7.50
2022-07-25T10:51:41.600Z,7.03
2022-07-25T10:54:14.769Z,7.17
2022-07-25T10:56:51.768Z,7.23
2022-07-25T10:59:26.507Z,7.27
2022-07-25T11:01:54.453Z,6.80
2022-07-25T11:04:22.012Z,6.43
2022-07-25T11:06:49.502Z,6.50
2022-07-25T11:09:22.643Z,6.63
2022-07-25T11:11:54.853Z,6.83
2022-07-25T11:14:23.053Z,7.10
2022-07-25T11:16:51.552Z,6.53
2022-07-25T11:19:21.055Z,6.73
2022-07-25T11:21:49.783Z,7.13
2022-07-25T11:24:18.713Z,7.10
2022-07-25T11:26:46.935Z,6.60
2022-07-25T11:29:21.532Z,6.70
2022-07-25T11:31:53.194Z,7.30
2022-07-25T11:34:23.197Z,7.20
2022-07-25T11:36:51.213Z,6.50
2022-07-25T11:39:20.172Z,6.47
2022-07-25T11:41:47.673Z,6.40
2022-07-25T11:44:15.155Z,6.30
2022-07-25T11:46:44.038Z,6.27
2022-07-25T11:49:12.623Z,5.90
2022-07-25T11:51:41.733Z,6.90
2022-07-25T11:54:10.298Z,6.30
2022-07-25T11:56:43.093Z,6.20
2022-07-25T11:59:11.688Z,6.10
2022-07-25T12:01:40.090Z,6.37
2022-07-25T12:04:11.399Z,5.90
2022-07-25T12:06:39.341Z,5.83
2022-07-25T12:09:18.257Z,6.00
2022-07-25T12:11:47.704Z,6.00
2022-07-25T12:14:15.332Z,5.80
2022-07-25T12:16:42.890Z,5.80
2022-07-25T12:19:18.409Z,5.80
2022-07-25T12:21:45.969Z,6.30
2022-07-25T12:24:13.572Z,5.10
2022-07-25T12:26:41.110Z,5.10
2022-07-25T12:29:10.358Z,5.30
2022-07-25T12:31:38.142Z,5.43
2022-07-25T12:34:05.622Z,5.20
2022-07-25T12:36:34.358Z,4.90
2022-07-25T12:39:02.910Z,4.80
2022-07-25T12:41:30.448Z,4.60
2022-07-25T12:43:58.914Z,4.77
2022-07-25T12:46:27.854Z,4.37
2022-07-25T12:48:55.557Z,4.63
2022-07-25T12:51:23.061Z,4.13
2022-07-25T12:53:50.545Z,4.80
2022-07-25T12:56:18.132Z,4.10
2022-07-25T12:58:45.575Z,4.40
2022-07-25T13:01:13.699Z,4.40
2022-07-25T13:03:42.596Z,4.27
2022-07-25T13:06:10.055Z,4.20
2022-07-25T13:08:38.022Z,4.20
2022-07-25T13:11:05.547Z,4.43
2022-07-25T13:13:33.035Z,4.83
2022-07-25T13:16:00.824Z,4.03
2022-07-25T13:18:28.410Z,4.60
2022-07-25T13:20:57.576Z,4.40
2022-07-25T13:23:25.068Z,4.27
2022-07-25T13:25:53.193Z,4.47
2022-07-25T13:28:20.789Z,4.13
2022-07-25T13:30:49.028Z,3.60
2022-07-25T13:33:16.717Z,3.60
2022-07-25T13:35:44.223Z,3.33
2022-07-25T13:38:13.144Z,3.43
2022-07-25T13:40:42.043Z,3.70
2022-07-25T13:43:09.553Z,3.80
2022-07-25T13:45:37.196Z,3.80
2022-07-25T13:48:29.688Z,3.50
2022-07-25T13:50:52.318Z,3.97
2022-07-25T13:53:21.265Z,3.70
2022-07-25T13:55:48.800Z,3.23
2022-07-25T13:58:16.320Z,3.77
2022-07-25T14:00:44.464Z,3.27
2022-07-25T14:03:12.135Z,3.03
2022-07-25T14:05:40.171Z,2.73
2022-07-25T14:08:07.683Z,3.10
2022-07-25T14:10:36.528Z,2.60
2022-07-25T14:13:04.034Z,2.87
2022-07-25T14:15:31.571Z,3.00
2022-07-25T14:17:59.064Z,3.50
2022-07-25T14:20:26.681Z,2.80
2022-07-25T14:22:54.199Z,2.93
2022-07-25T14:25:22.702Z,3.00
2022-07-25T14:27:51.508Z,2.57
2022-07-25T14:30:19.132Z,2.27
2022-07-25T14:32:47.022Z,2.60
2022-07-25T14:35:14.506Z,2.60
2022-07-25T14:37:42.327Z,2.37
2022-07-25T14:40:11.007Z,2.30
2022-07-25T14:42:40.189Z,2.83
2022-07-25T14:45:10.106Z,2.57
2022-07-25T14:47:37.627Z,2.33
2022-07-25T14:50:05.927Z,2.80
2022-07-25T14:52:33.392Z,2.60
2022-07-25T14:55:01.159Z,2.90
2022-07-25T14:57:28.812Z,3.03
2022-07-25T14:59:56.275Z,2.87
2022-07-25T15:02:25.129Z,3.00
2022-07-25T15:04:52.685Z,2.50
2022-07-25T15:07:20.262Z,2.57
2022-07-25T15:09:48.115Z,2.77
2022-07-25T15:12:17.254Z,2.63
2022-07-25T15:14:45.622Z,2.50
2022-07-25T15:17:13.539Z,2.80
2022-07-25T15:19:42.368Z,2.60
2022-07-25T15:22:09.839Z,2.57
2022-07-25T15:24:57.627Z,2.53
2022-07-25T15:27:24.885Z,2.80
2022-07-25T15:29:52.346Z,2.63
2022-07-25T15:32:20.450Z,2.40
2022-07-25T15:34:49.268Z,2.60
2022-07-25T15:37:16.748Z,2.67
2022-07-25T15:39:45.070Z,2.43
2022-07-25T15:42:12.485Z,2.50
2022-07-25T15:44:39.959Z,2.80
2022-07-25T15:47:07.492Z,2.57
2022-07-25T15:49:35.189Z,2.77
2022-07-25T15:52:04.001Z,2.93
2022-07-25T15:54:31.538Z,3.00
2022-07-25T15:56:59.305Z,2.37
2022-07-25T15:59:26.768Z,2.67
2022-07-25T16:01:54.264Z,2.70
2022-07-25T16:04:21.747Z,3.00
2022-07-25T16:06:49.757Z,2.53
2022-07-25T16:09:19.313Z,2.77
2022-07-25T16:11:46.754Z,2.70
2022-07-25T16:14:14.238Z,2.47
2022-07-25T16:16:41.768Z,2.80
2022-07-25T16:19:09.988Z,2.37
2022-07-25T16:21:38.798Z,2.50
2022-07-25T16:24:06.527Z,3.00
2022-07-25T16:26:35.975Z,2.43
2022-07-25T16:29:04.925Z,2.50
2022-07-25T16:31:32.498Z,2.30
2022-07-25T16:34:00.046Z,2.60
2022-07-25T16:36:28.252Z,2.10
2022-07-25T16:38:55.671Z,2.40
2022-07-25T16:41:23.188Z,2.90
2022-07-25T16:43:52.067Z,2.87
2022-07-25T16:46:19.672Z,2.43
2022-07-25T16:48:47.298Z,2.50
2022-07-25T16:51:14.863Z,2.60
2022-07-25T16:53:42.337Z,3.47
2022-07-25T16:56:09.799Z,2.70
2022-07-25T16:58:37.251Z,2.73
2022-07-25T17:01:06.794Z,2.53
2022-07-25T17:03:34.269Z,2.87
2022-07-25T17:06:01.857Z,2.40
2022-07-25T17:08:31.835Z,2.43
2022-07-25T17:10:59.361Z,2.93
2022-07-25T17:13:26.875Z,2.60
2022-07-25T17:15:54.477Z,2.50
2022-07-25T17:18:23.436Z,3.17
2022-07-25T17:20:50.854Z,2.77
2022-07-25T17:23:18.342Z,2.50
2022-07-25T17:25:50.160Z,2.57
2022-07-25T17:28:18.050Z,2.60
2022-07-25T17:30:45.637Z,2.60
2022-07-25T17:33:13.259Z,2.70
2022-07-25T17:35:42.192Z,2.50
2022-07-25T17:38:09.600Z,2.90
2022-07-25T17:40:38.431Z,2.40
2022-07-25T17:43:05.921Z,3.03
2022-07-25T17:45:33.468Z,2.40
2022-07-25T17:48:00.960Z,2.20
2022-07-25T17:50:29.611Z,2.50
2022-07-25T17:52:59.909Z,2.40
2022-07-25T17:55:28.661Z,2.40
2022-07-25T17:57:56.616Z,2.77
2022-07-25T18:00:24.290Z,2.80
2022-07-25T18:02:51.849Z,2.23
2022-07-25T18:05:19.452Z,2.70
2022-07-25T18:07:49.474Z,2.30
2022-07-25T18:10:18.527Z,2.53
2022-07-25T18:12:46.016Z,2.67
2022-07-25T18:15:14.789Z,2.57
2022-07-25T18:17:43.035Z,2.83
2022-07-25T18:20:11.239Z,2.57
2022-07-25T18:22:41.009Z,2.57
2022-07-25T18:25:10.583Z,2.73
2022-07-25T18:27:41.095Z,2.77
2022-07-25T18:30:09.299Z,2.30
2022-07-25T18:32:36.746Z,2.70
2022-07-25T18:35:04.849Z,2.80
2022-07-25T18:37:32.397Z,2.60
2022-07-25T18:39:59.854Z,2.67
2022-07-25T18:42:29.965Z,2.67
2022-07-25T18:44:59.057Z,2.60
2022-07-25T18:47:30.947Z,2.40
2022-07-25T18:50:00.164Z,2.67
2022-07-25T18:52:29.021Z,2.50
2022-07-25T18:54:56.469Z,2.97
2022-07-25T18:57:23.913Z,2.77
2022-07-25T18:59:51.351Z,2.63
2022-07-25T19:02:20.296Z,2.40
2022-07-25T19:04:47.794Z,2.00
2022-07-25T19:07:15.495Z,2.10
2022-07-25T19:09:42.960Z,2.00
2022-07-25T19:12:11.059Z,2.00
2022-07-25T19:14:38.579Z,2.03
2022-07-25T19:17:06.706Z,2.10
2022-07-25T19:19:35.528Z,2.00
2022-07-25T19:22:02.983Z,2.00
2022-07-25T19:24:31.356Z,1.90
2022-07-25T19:26:58.900Z,1.77
2022-07-25T19:29:26.692Z,1.67
2022-07-25T19:31:54.212Z,1.80
2022-07-25T19:34:21.817Z,1.60
2022-07-25T19:36:50.656Z,1.83
2022-07-25T19:39:18.433Z,1.80
2022-07-25T19:41:47.200Z,1.97
2022-07-25T19:44:15.146Z,1.93
2022-07-25T19:46:42.631Z,2.00
2022-07-25T19:49:10.543Z,1.90
2022-07-25T19:51:38.057Z,1.63
2022-07-25T19:54:09.027Z,1.73
2022-07-25T19:56:36.813Z,1.97
2022-07-25T19:59:04.833Z,1.97
2022-07-25T20:01:35.927Z,1.60
2022-07-25T20:04:05.233Z,1.97
2022-07-25T20:06:33.114Z,2.03
2022-07-25T20:09:00.645Z,2.13
2022-07-25T20:11:29.479Z,1.93
2022-07-25T20:13:56.908Z,1.90
2022-07-25T20:16:24.469Z,1.70
2022-07-25T20:18:52.011Z,1.63
2022-07-25T20:21:19.502Z,1.80
2022-07-25T20:23:47.346Z,1.70
2022-07-25T20:26:14.968Z,1.80
2022-07-25T20:28:43.969Z,1.60
2022-07-25T20:31:11.497Z,1.60
2022-07-25T20:33:39.136Z,1.60
2022-07-25T20:36:06.756Z,1.87
2022-07-25T20:38:34.592Z,1.83
2022-07-25T20:41:02.054Z,1.70
2022-07-25T20:43:30.504Z,1.30
2022-07-25T20:45:59.416Z,1.40
2022-07-25T20:48:26.998Z,1.73
2022-07-25T20:50:54.493Z,2.07
2022-07-25T20:53:22.021Z,1.77
2022-07-25T20:55:49.720Z,1.57
2022-07-25T20:58:17.292Z,1.30
2022-07-25T21:00:45.109Z,1.40
2022-07-25T21:03:13.908Z,1.60
2022-07-25T21:05:43.360Z,1.53
2022-07-25T21:08:11.699Z,1.57
2022-07-25T21:10:39.230Z,1.53
2022-07-25T21:13:06.756Z,1.80
2022-07-25T21:15:34.587Z,1.30
2022-07-25T21:18:02.137Z,1.50
2022-07-25T21:20:31.132Z,1.33
2022-07-25T21:22:58.584Z,1.57
2022-07-25T21:25:26.694Z,1.53
2022-07-25T21:27:54.216Z,1.40
2022-07-25T21:30:21.712Z,1.80
2022-07-25T21:32:49.191Z,1.50
2022-07-25T21:35:18.506Z,1.20
2022-07-25T21:37:47.619Z,1.50
2022-07-25T21:40:15.229Z,1.80
2022-07-25T21:42:42.786Z,1.43
2022-07-25T21:45:10.659Z,1.50
2022-07-25T21:47:38.187Z,1.33
2022-07-25T21:50:24.873Z,1.37
2022-07-25T21:52:54.432Z,1.30
2022-07-25T21:55:22.290Z,1.33
2022-07-25T21:57:51.235Z,1.53
2022-07-25T22:00:19.427Z,1.50
2022-07-25T22:02:47.184Z,1.50
2022-07-25T22:05:15.321Z,1.40
2022-07-25T22:07:43.350Z,1.30
2022-07-25T22:10:13.143Z,1.60
2022-07-25T22:12:41.225Z,1.40
2022-07-25T22:15:12.218Z,1.70
2022-07-25T22:17:48.817Z,1.50
2022-07-25T22:20:16.933Z,1.40
2022-07-25T22:22:44.409Z,1.27
2022-07-25T22:25:13.536Z,1.30
2022-07-25T22:27:41.034Z,1.10
2022-07-25T22:30:12.248Z,1.30
2022-07-25T22:32:42.563Z,1.63
2022-07-25T22:35:10.453Z,1.40
2022-07-25T22:37:37.894Z,1.50
2022-07-25T22:40:05.778Z,1.20
2022-07-25T22:42:34.589Z,1.47
2022-07-25T22:45:02.099Z,1.27
2022-07-25T22:47:29.540Z,1.50
2022-07-25T22:49:57.063Z,1.37
2022-07-25T22:52:24.824Z,1.40
2022-07-25T22:54:52.289Z,1.63
2022-07-25T22:57:19.744Z,1.53
2022-07-25T22:59:50.454Z,1.33
2022-07-25T23:02:17.860Z,1.30
2022-07-25T23:04:45.347Z,1.20
2022-07-25T23:07:12.802Z,1.70
2022-07-25T23:09:40.288Z,1.93
2022-07-25T23:12:07.973Z,1.57
2022-07-25T23:14:35.437Z,1.17
2022-07-25T23:17:19.963Z,1.20
2022-07-25T23:19:47.796Z,1.30
2022-07-25T23:22:15.345Z,1.30
2022-07-25T23:24:42.877Z,1.40
2022-07-25T23:27:10.344Z,1.20
2022-07-25T23:29:37.831Z,1.23
2022-07-25T23:32:07.394Z,1.37
2022-07-25T23:34:35.291Z,1.10
2022-07-25T23:37:03.153Z,1.20
2022-07-25T23:39:31.705Z,1.40
2022-07-25T23:41:59.259Z,1.27
2022-07-25T23:44:27.055Z,1.30
2022-07-25T23:46:57.421Z,1.37
2022-07-25T23:49:26.380Z,1.53
2022-07-25T23:51:54.844Z,1.40
2022-07-25T23:54:22.315Z,1.33
2022-07-25T23:56:49.797Z,1.13
2022-07-25T23:59:18.300Z,1.50
